Flight Track Log - Related Links

Times and Time Zones

All times are in EST time to prevent confusion due to time zone crossing. See the UCA3597 flight status page for this flight to view local times or setup timezone preferences in your user account.

Time Position Orientation Groundspeed Altitude Reporting Facility
EST Latitude Longitude Course Direction KTS MPH feet Rate Location/Type
Fri 06:24:00 PM 40.2118 -76.9040 19° North  Level Estimated
Fri 06:25:00 PM 40.2861 -76.8706 19° North  Level Estimated
Fri 06:26:00 PM 40.3604 -76.8372 19° North  Level Estimated
Fri 06:27:00 PM 40.4347 -76.8037 19° North  Level Estimated
Fri 06:28:00 PM 40.5089 -76.7701 19° North  Level Estimated
Fri 06:29:00 PM 40.5832 -76.7365 19° North  Level Estimated
Fri 06:30:00 PM 40.6574 -76.7028 19° North  Level Estimated
Fri 06:31:00 PM 40.7317 -76.6690 19° North  Level Estimated
Fri 06:32:00 PM 40.8059 -76.6351 19° North  Level Estimated
Fri 06:33:00 PM 40.8801 -76.6012 19° North  Level Estimated
Fri 06:34:00 PM 40.9543 -76.5672 19° North  Level Estimated
Fri 06:35:00 PM 41.0285 -76.5331 19° North  Level Estimated
Fri 06:36:00 PM 41.1027 -76.4989 19° North  Level Estimated
Fri 06:37:00 PM 41.1769 -76.4647 19° North  Level Estimated
Fri 06:38:00 PM 41.2510 -76.4303 19° North  Level Estimated
Fri 06:39:00 PM 41.3252 -76.3959 19° North  Level Estimated
Fri 06:40:00 PM 41.3993 -76.3614 19° North  Level Estimated
Fri 06:41:00 PM 41.4734 -76.3269 19° North  Level Estimated
Fri 06:42:00 PM 41.5476 -76.2922 19° North  Level Estimated
Fri 06:43:00 PM 41.6217 -76.2575 19° North  Level Estimated
Fri 06:44:00 PM 41.6958 -76.2227 19° North  Level Estimated
Fri 06:45:00 PM 41.7699 -76.1878 19° North  Level Estimated
Fri 06:46:00 PM 41.8439 -76.1529 19° North  Level Estimated
Fri 06:47:00 PM 41.9180 -76.1178 19° North  Level Estimated
Fri 06:48:00 PM 41.9921 -76.0827 19° North  Level Estimated
Fri 06:49:00 PM 42.0661 -76.0475 19° North  Level Estimated
Fri 06:50:00 PM 42.1402 -76.0122 19° North  Level Estimated
Fri 06:51:00 PM 42.2084 -75.9796 19° North  Level Estimated
Fri 06:52:00 PM 42.2084 -75.9796 35° Northeast  Level Estimated
Fri 06:53:00 PM 42.2084 -75.9796 35° Northeast  Level Estimated
Fri 06:54:00 PM 42.2084 -75.9796 35° Northeast  Level Estimated
Fri 06:55:00 PM 42.2084 -75.9796 35° Northeast  Level Estimated
Fri 06:56:00 PM 42.2084 -75.9796 35° Northeast  Level Estimated
Fri 06:57:00 PM 42.2084 -75.9796 35° Northeast  Level Estimated
Fri 06:58:00 PM 42.2084 -75.9796 35° Northeast  Level Estimated
Fri 06:59:00 PM 42.2084 -75.9796 35° Northeast  Level Estimated
Fri 07:00:00 PM 42.2084 -75.9796 35° Northeast  Level Estimated
Fri 07:01:00 PM 42.2084 -75.9796 35° Northeast  Level Estimated
Fri 07:02:00 PM 42.2084 -75.9796 35° Northeast  Level Estimated
Fri 07:03:00 PM 42.2084 -75.9796 35° Northeast  Level Estimated
Fri 07:04:00 PM 42.2084 -75.9796 35° Northeast  Level Estimated
Fri 07:05:00 PM 42.2084 -75.9796 35° Northeast  Level Estimated
Fri 07:06:00 PM 42.2084 -75.9796 35° Northeast  Level Estimated
Fri 07:07:00 PM 42.2084 -75.9796 35° Northeast  Level Estimated

Login

Don't have an account? Register now (free) for customized features, flight alerts, and more!